Time;durP1;ratioP1;P1;durP2;ratioP2;P2;SDS_P1;SDS_P2;PMS_P1;PMS_P2;Temp;Humidity;BMP_temperature;BMP_pressure;BME280_temperature;BME280_humidity;BME280_pressure;Samples;Min_cycle;Max_cycle;Signal;HPM_P1;HPM_P2
2023/07/27 00:00:02;;;;;;;24.15;16.20;;;;;;;22.72;64.94;98341.28;4994427;28;20033;-72
2023/07/27 00:02:28;;;;;;;25.67;18.67;;;;;;;22.77;64.48;98342.00;4994642;28;20073;-72
2023/07/27 00:04:53;;;;;;;23.80;17.10;;;;;;;22.77;64.26;98351.34;4994334;28;20022;-72
2023/07/27 00:07:19;;;;;;;20.83;16.98;;;;;;;22.75;64.79;98358.75;4994175;28;20482;-72
2023/07/27 00:09:44;;;;;;;18.23;13.25;;;;;;;22.67;66.08;98366.66;5008672;28;20060;-72
2023/07/27 00:12:10;;;;;;;18.55;12.85;;;;;;;22.60;66.50;98349.75;5013510;28;20037;-72
2023/07/27 00:14:35;;;;;;;20.77;11.68;;;;;;;22.61;66.75;98355.00;5012132;28;20492;-72
2023/07/27 00:17:01;;;;;;;18.20;12.85;;;;;;;22.60;66.28;98350.53;5013020;28;20065;-72
2023/07/27 00:19:26;;;;;;;17.48;11.65;;;;;;;22.64;66.81;98359.00;5011815;28;20041;-72
2023/07/27 00:21:51;;;;;;;15.18;10.80;;;;;;;22.62;66.90;98350.13;5013700;28;20033;-72
2023/07/27 00:24:17;;;;;;;16.63;10.75;;;;;;;22.56;66.55;98356.34;5013873;28;20022;-72
2023/07/27 00:26:42;;;;;;;11.38;9.27;;;;;;;22.71;66.07;98356.00;5012058;28;20084;-72
2023/07/27 00:29:08;;;;;;;14.65;8.60;;;;;;;22.65;66.28;98350.03;5012860;28;20025;-72
2023/07/27 00:31:33;;;;;;;13.32;9.20;;;;;;;22.70;66.67;98358.03;5010022;28;20025;-72
2023/07/27 00:33:59;;;;;;;11.80;8.90;;;;;;;22.66;65.73;98353.66;4993506;28;20133;-72
2023/07/27 00:36:25;;;;;;;17.48;8.48;;;;;;;22.69;65.40;98358.50;4992459;28;20030;-72
2023/07/27 00:38:51;;;;;;;14.73;8.93;;;;;;;22.71;65.82;98353.16;4993604;28;20114;-72
2023/07/27 00:41:16;;;;;;;12.05;9.13;;;;;;;22.73;65.30;98342.09;5005426;28;20540;-72
2023/07/27 00:43:41;;;;;;;13.25;9.23;;;;;;;22.73;65.85;98356.34;5011513;28;20496;-72
2023/07/27 00:46:07;;;;;;;14.25;8.85;;;;;;;22.61;65.54;98351.34;5011404;28;20485;-72
2023/07/27 00:48:33;;;;;;;13.25;9.50;;;;;;;22.53;65.77;98345.03;5011806;28;20485;-72
2023/07/27 00:50:59;;;;;;;13.93;9.50;;;;;;;22.57;65.91;98357.97;5013166;28;20030;-72
2023/07/27 00:53:24;;;;;;;11.52;8.93;;;;;;;22.57;65.94;98346.56;5012883;28;20033;-72
2023/07/27 00:55:50;;;;;;;15.00;9.38;;;;;;;22.57;65.82;98357.97;5011351;28;20037;-72
2023/07/27 00:58:16;;;;;;;12.13;8.90;;;;;;;22.46;65.71;98359.41;5010629;28;20048;-72
2023/07/27 01:00:44;;;;;;;15.27;8.63;;;;;;;22.52;65.53;98361.31;5012668;28;20037;-72
2023/07/27 01:03:10;;;;;;;12.82;8.55;;;;;;;22.50;65.30;98363.81;5011494;28;20026;-72
2023/07/27 01:05:37;;;;;;;11.85;7.47;;;;;;;22.47;65.30;98367.53;4997296;28;20026;-72
2023/07/27 01:08:02;;;;;;;8.38;7.38;;;;;;;22.43;65.68;98367.59;4993029;28;20022;-72
2023/07/27 01:10:42;;;;;;;9.35;7.82;;;;;;;22.43;65.57;98361.09;4993140;28;20404;-72
2023/07/27 01:13:18;;;;;;;11.77;8.65;;;;;;;22.36;66.38;98364.13;4992971;28;20524;-72
2023/07/27 01:15:51;;;;;;;11.20;8.95;;;;;;;22.37;66.41;98362.88;5007947;28;20409;-72
2023/07/27 01:18:31;;;;;;;13.95;8.88;;;;;;;22.29;65.52;98365.09;4994212;28;20157;-72
2023/07/27 01:21:24;;;;;;;11.07;8.02;;;;;;;22.38;65.41;98367.34;4992799;28;20030;-72
2023/07/27 01:24:15;;;;;;;10.85;8.23;;;;;;;22.41;64.76;98358.72;4990388;28;20128;-72
2023/07/27 01:27:11;;;;;;;10.10;7.88;;;;;;;22.24;65.34;98360.72;4992882;28;20401;-72
2023/07/27 01:30:08;;;;;;;12.70;7.88;;;;;;;22.26;65.71;98366.78;5005345;28;20076;-72
2023/07/27 01:32:37;;;;;;;14.23;9.23;;;;;;;22.15;66.41;98363.38;4992652;28;20034;-72
2023/07/27 01:35:10;;;;;;;11.40;8.43;;;;;;;22.13;66.01;98380.88;4992408;28;20107;-72
2023/07/27 01:37:40;;;;;;;12.60;8.45;;;;;;;22.06;65.84;98380.25;4992616;28;20061;-72
2023/07/27 01:40:07;;;;;;;14.35;8.35;;;;;;;22.08;66.33;98378.56;5003057;28;20021;-72
2023/07/27 01:42:33;;;;;;;10.15;8.52;;;;;;;22.11;66.03;98389.06;4995603;28;20034;-72
2023/07/27 01:44:59;;;;;;;10.35;7.90;;;;;;;22.02;66.46;98381.13;4992415;28;20038;-72
2023/07/27 01:47:25;;;;;;;13.18;8.57;;;;;;;22.09;65.81;98385.06;5005754;28;20400;-72
2023/07/27 01:49:52;;;;;;;12.15;8.82;;;;;;;22.05;66.17;98390.03;5011788;28;20460;-72
2023/07/27 01:52:20;;;;;;;10.63;8.63;;;;;;;21.91;66.75;98386.25;5011309;28;20033;-72
2023/07/27 01:54:48;;;;;;;16.42;9.00;;;;;;;21.87;66.78;98392.00;5010488;28;20033;-72
2023/07/27 01:57:15;;;;;;;12.73;8.50;;;;;;;21.82;67.28;98395.38;5011085;28;20109;-72
2023/07/27 01:59:41;;;;;;;13.32;8.77;;;;;;;21.77;67.17;98397.94;5011800;28;20405;-72
2023/07/27 02:02:07;;;;;;;12.75;8.82;;;;;;;21.78;67.49;98402.38;5011518;28;20021;-72
2023/07/27 02:04:33;;;;;;;13.77;9.45;;;;;;;21.84;67.09;98400.63;5010462;28;20037;-72
2023/07/27 02:06:59;;;;;;;10.68;8.75;;;;;;;21.83;67.36;98401.88;5011526;28;20014;-72
2023/07/27 02:09:25;;;;;;;11.73;7.95;;;;;;;21.82;67.23;98411.63;4997014;28;20430;-72
2023/07/27 02:11:55;;;;;;;12.82;8.85;;;;;;;21.73;67.95;98410.19;4992412;28;20026;-72
2023/07/27 02:15:01;;;;;;;14.05;8.75;;;;;;;21.76;68.04;98404.88;5010120;28;20026;-72
2023/07/27 02:17:39;;;;;;;16.40;9.15;;;;;;;21.77;68.01;98412.94;4970332;28;20027;-72
2023/07/27 02:20:13;;;;;;;10.93;9.20;;;;;;;21.72;68.05;98408.59;4996274;28;20045;-71
2023/07/27 02:22:40;;;;;;;11.48;8.75;;;;;;;21.76;68.03;98416.25;4991899;28;20101;-71
2023/07/27 02:25:07;;;;;;;10.85;8.90;;;;;;;21.80;67.68;98414.13;4991820;28;20428;-72
2023/07/27 02:27:33;;;;;;;13.48;9.35;;;;;;;21.77;68.14;98420.69;5004132;28;20564;-72
2023/07/27 02:30:00;;;;;;;9.40;8.38;;;;;;;21.71;67.85;98421.19;5011413;28;20026;-72
2023/07/27 02:32:26;;;;;;;11.70;8.45;;;;;;;21.70;67.85;98433.03;5010746;28;20037;-72
2023/07/27 02:34:51;;;;;;;12.48;9.23;;;;;;;21.66;68.43;98446.47;5011297;28;20440;-72
2023/07/27 02:37:16;;;;;;;12.45;9.95;;;;;;;21.67;68.05;98448.13;5010249;28;20084;-72
2023/07/27 02:39:42;;;;;;;11.68;8.77;;;;;;;21.58;68.12;98454.34;4998292;28;20030;-72
2023/07/27 02:42:07;;;;;;;11.75;9.68;;;;;;;21.65;67.71;98459.91;4999115;28;20025;-72
2023/07/27 02:44:33;;;;;;;10.85;9.07;;;;;;;21.59;68.42;98476.69;5003528;28;20027;-72
2023/07/27 02:46:58;;;;;;;14.68;11.30;;;;;;;21.60;68.94;98486.03;5006365;28;20502;-72
2023/07/27 02:49:24;;;;;;;13.52;10.25;;;;;;;21.57;68.31;98481.19;5011223;28;20497;-72
2023/07/27 02:51:49;;;;;;;11.15;9.35;;;;;;;21.52;69.12;98490.22;5003798;28;20433;-72
2023/07/27 02:54:15;;;;;;;11.95;9.20;;;;;;;21.43;68.85;98485.13;5006108;28;20018;-72
2023/07/27 02:56:40;;;;;;;11.73;9.30;;;;;;;21.37;67.34;98495.38;4993037;28;20109;-72
2023/07/27 02:59:06;;;;;;;10.90;8.75;;;;;;;21.35;66.08;98495.00;5009975;28;20022;-72
2023/07/27 03:01:31;;;;;;;12.90;8.32;;;;;;;21.29;66.26;98501.16;4998748;28;20037;-72
2023/07/27 03:03:56;;;;;;;12.82;7.30;;;;;;;21.27;64.23;98500.78;4991592;28;20073;-72
2023/07/27 03:06:22;;;;;;;10.43;6.57;;;;;;;21.28;63.66;98512.97;4994736;28;20029;-72
2023/07/27 03:08:47;;;;;;;6.82;5.75;;;;;;;21.18;61.82;98515.56;5010218;28;20026;-72
2023/07/27 03:11:13;;;;;;;8.73;5.05;;;;;;;21.20;61.39;98520.84;5010978;28;20029;-72
2023/07/27 03:13:38;;;;;;;6.55;5.03;;;;;;;21.24;61.58;98532.94;5010557;28;20477;-72
2023/07/27 03:16:04;;;;;;;6.57;4.40;;;;;;;21.18;61.42;98534.69;5000409;28;20030;-72
2023/07/27 03:18:30;;;;;;;6.43;4.65;;;;;;;21.08;61.34;98533.59;4995588;28;20485;-72
2023/07/27 03:20:56;;;;;;;7.85;4.75;;;;;;;21.05;61.09;98528.78;5008401;28;20032;-72
2023/07/27 03:23:21;;;;;;;6.80;3.72;;;;;;;21.11;60.08;98534.78;5026405;28;20048;-72
2023/07/27 03:25:47;;;;;;;5.30;3.33;;;;;;;21.06;59.85;98533.22;5014910;28;20105;-75
2023/07/27 03:28:12;;;;;;;7.57;4.03;;;;;;;21.11;60.56;98546.16;5014433;28;20026;-73
2023/07/27 03:30:38;;;;;;;8.90;4.60;;;;;;;21.16;60.48;98537.13;5008337;28;20026;-74
2023/07/27 03:33:05;;;;;;;8.82;4.95;;;;;;;21.29;61.52;98534.50;4995052;28;20026;-77
2023/07/27 03:35:32;;;;;;;19.58;5.85;;;;;;;21.39;61.41;98539.22;5002657;28;20045;-74
2023/07/27 03:37:57;;;;;;;9.18;5.55;;;;;;;21.21;60.79;98550.06;5013101;28;20421;-77
2023/07/27 03:40:23;;;;;;;4.85;4.07;;;;;;;21.01;59.45;98545.88;5011803;28;20033;-75
2023/07/27 03:42:48;;;;;;;6.55;3.35;;;;;;;20.96;59.76;98546.38;5013360;28;20168;-76
2023/07/27 03:45:14;;;;;;;3.67;2.97;;;;;;;20.81;59.19;98556.28;5013034;28;20113;-76
2023/07/27 03:47:41;;;;;;;4.15;3.00;;;;;;;20.75;59.46;98564.47;5013181;28;20049;-76
2023/07/27 03:50:07;;;;;;;9.02;3.50;;;;;;;20.70;58.31;98564.97;5012457;28;20026;-76
2023/07/27 03:52:33;;;;;;;5.45;3.38;;;;;;;20.67;59.41;98571.50;5012463;28;20036;-75
2023/07/27 03:54:58;;;;;;;6.03;3.67;;;;;;;20.70;59.18;98562.13;5013795;28;20021;-76
2023/07/27 03:57:23;;;;;;;4.47;3.72;;;;;;;20.51;59.58;98549.38;5002696;28;20022;-75
2023/07/27 03:59:53;;;;;;;4.78;3.72;;;;;;;20.52;60.66;98562.34;5002855;28;20087;-75
2023/07/27 04:02:18;;;;;;;7.60;3.65;;;;;;;20.43;60.39;98555.16;5014130;28;20481;-75
2023/07/27 04:04:44;;;;;;;6.10;3.75;;;;;;;20.46;60.19;98571.38;5014060;28;20026;-76
2023/07/27 04:07:09;;;;;;;5.95;3.65;;;;;;;20.46;60.31;98571.38;5013942;28;20021;-75
2023/07/27 04:09:35;;;;;;;13.32;4.15;;;;;;;20.44;60.51;98579.47;5014039;28;20021;-75
2023/07/27 04:12:00;;;;;;;5.57;4.45;;;;;;;20.38;60.03;98577.53;5011931;28;20029;-76
2023/07/27 04:14:26;;;;;;;5.10;4.60;;;;;;;20.41;60.01;98579.53;5012387;28;20448;-75
2023/07/27 04:16:51;;;;;;;12.27;5.63;;;;;;;20.42;59.46;98569.78;5012418;28;20079;-75
2023/07/27 04:19:16;;;;;;;8.75;4.90;;;;;;;20.37;60.43;98587.28;5013694;28;20084;-76
2023/07/27 04:21:42;;;;;;;4.88;4.38;;;;;;;20.30;61.25;98586.16;5009079;28;20026;-75
2023/07/27 04:24:07;;;;;;;4.47;4.03;;;;;;;20.36;61.01;98594.19;5002049;28;20029;-75
2023/07/27 04:26:33;;;;;;;5.50;4.40;;;;;;;20.39;60.90;98599.00;5013459;28;20017;-75
2023/07/27 04:28:58;;;;;;;7.60;4.70;;;;;;;20.40;60.55;98592.13;5012332;28;20029;-75
2023/07/27 04:31:24;;;;;;;10.02;4.85;;;;;;;20.43;60.67;98599.78;5013281;28;20080;-75
2023/07/27 04:33:49;;;;;;;6.13;5.28;;;;;;;20.43;60.92;98614.00;5002651;28;20041;-75
2023/07/27 04:36:14;;;;;;;10.93;4.82;;;;;;;20.47;60.40;98609.06;5011496;28;20033;-76
2023/07/27 04:38:40;;;;;;;11.52;5.68;;;;;;;20.48;61.35;98607.84;5013434;28;20026;-75
2023/07/27 04:41:05;;;;;;;6.82;5.93;;;;;;;20.45;61.57;98609.50;5013334;28;20029;-75
2023/07/27 04:43:31;;;;;;;7.63;5.88;;;;;;;20.46;61.64;98616.81;5012692;28;20022;-75
2023/07/27 04:45:56;;;;;;;6.18;5.25;;;;;;;20.47;60.32;98614.75;5011929;28;20423;-75
2023/07/27 04:48:22;;;;;;;7.20;5.78;;;;;;;20.52;60.17;98619.16;5013200;28;20440;-75
2023/07/27 04:50:47;;;;;;;11.00;5.50;;;;;;;20.52;59.27;98619.97;5013160;28;20026;-75
2023/07/27 04:53:13;;;;;;;9.32;6.72;;;;;;;20.52;59.99;98619.97;4999623;28;20034;-75
2023/07/27 04:55:38;;;;;;;7.38;6.00;;;;;;;20.60;59.32;98624.31;5005824;28;20017;-76
2023/07/27 04:58:04;;;;;;;8.35;6.15;;;;;;;20.65;59.77;98640.09;5012886;28;20029;-75
2023/07/27 05:00:30;;;;;;;6.25;5.57;;;;;;;20.66;58.79;98650.22;5013096;28;20025;-75
2023/07/27 05:02:56;;;;;;;7.05;6.45;;;;;;;20.71;58.55;98657.47;5012712;28;20021;-75
2023/07/27 05:05:22;;;;;;;8.63;6.28;;;;;;;20.74;59.53;98659.47;5001478;28;20038;-76
2023/07/27 05:07:47;;;;;;;9.50;5.90;;;;;;;20.70;58.24;98656.69;4993170;28;20045;-76
2023/07/27 05:10:13;;;;;;;6.18;5.32;;;;;;;20.64;56.60;98663.28;5000886;28;20037;-75
2023/07/27 05:12:38;;;;;;;8.50;6.15;;;;;;;20.57;56.46;98664.94;5011025;28;20026;-76
2023/07/27 05:15:04;;;;;;;6.68;6.03;;;;;;;20.56;56.90;98677.53;5006843;28;20026;-75
2023/07/27 05:17:30;;;;;;;7.13;6.43;;;;;;;20.56;57.01;98677.53;4992927;28;20129;-75
2023/07/27 05:19:56;;;;;;;8.43;6.55;;;;;;;20.57;56.66;98669.81;4992927;28;20030;-75
2023/07/27 05:22:21;;;;;;;17.13;6.78;;;;;;;20.49;56.42;98680.44;5008185;28;20053;-75
2023/07/27 05:24:47;;;;;;;6.45;5.78;;;;;;;20.53;56.77;98686.91;4999097;28;20036;-75
2023/07/27 05:27:12;;;;;;;14.15;6.40;;;;;;;20.54;56.24;98702.72;5011034;28;20065;-75
2023/07/27 05:29:38;;;;;;;8.32;7.03;;;;;;;20.51;56.45;98699.91;5009733;28;20022;-75
2023/07/27 05:32:03;;;;;;;8.10;6.50;;;;;;;20.50;56.05;98698.31;5008756;28;20022;-75
2023/07/27 05:34:29;;;;;;;9.27;6.80;;;;;;;20.55;56.91;98689.31;5006743;28;20037;-76
2023/07/27 05:36:54;;;;;;;10.50;6.32;;;;;;;20.69;56.23;98692.00;5012115;28;20057;-74
2023/07/27 05:39:20;;;;;;;7.35;6.65;;;;;;;20.69;55.06;98691.19;5011245;28;20084;-75
2023/07/27 05:41:45;;;;;;;9.18;6.53;;;;;;;20.68;54.98;98706.63;5002320;28;20037;-75
2023/07/27 05:44:11;;;;;;;7.90;5.90;;;;;;;20.67;54.22;98714.34;4992808;28;20056;-75
2023/07/27 05:46:36;;;;;;;6.72;5.90;;;;;;;20.71;54.04;98709.44;5004948;28;20037;-76
2023/07/27 05:49:03;;;;;;;5.25;4.72;;;;;;;20.78;53.83;98722.75;5012290;28;20018;-76
2023/07/27 05:51:29;;;;;;;18.42;5.90;;;;;;;20.83;53.45;98722.31;4992378;28;20110;-75
2023/07/27 05:53:54;;;;;;;8.15;5.43;;;;;;;21.09;53.34;98730.56;5004082;28;20038;-75
2023/07/27 05:56:20;;;;;;;7.95;5.32;;;;;;;21.27;53.53;98736.00;5011816;28;20022;-76
2023/07/27 05:58:46;;;;;;;8.90;5.28;;;;;;;21.52;53.13;98732.81;5000664;28;20580;-75
2023/07/27 06:01:12;;;;;;;8.57;4.65;;;;;;;21.40;52.51;98728.53;5011509;28;20028;-76
2023/07/27 06:03:37;;;;;;;13.73;5.05;;;;;;;21.37;53.18;98725.72;4997498;28;20081;-76
2023/07/27 06:06:03;;;;;;;13.80;4.97;;;;;;;21.35;53.04;98728.97;4997533;28;20353;-79
2023/07/27 06:08:29;;;;;;;8.85;5.05;;;;;;;21.29;53.11;98739.25;5006545;28;20792;-76
2023/07/27 06:11:07;;;;;;;7.50;4.53;;;;;;;21.40;53.24;98739.91;5008845;28;20025;-74
2023/07/27 06:13:33;;;;;;;18.52;4.75;;;;;;;21.53;53.39;98751.50;5008495;28;20108;-74
2023/07/27 06:15:59;;;;;;;12.73;4.43;;;;;;;21.46;52.83;98748.75;5008960;28;20076;-75
2023/07/27 06:18:25;;;;;;;20.50;4.72;;;;;;;21.28;51.11;98740.47;5009047;28;20033;-74
2023/07/27 06:20:50;;;;;;;4.38;3.97;;;;;;;21.27;51.72;98736.00;5009195;28;20117;-74
2023/07/27 06:23:15;;;;;;;6.70;4.95;;;;;;;21.37;51.43;98732.22;5007348;28;20022;-75
2023/07/27 06:25:45;;;;;;;6.53;4.43;;;;;;;21.35;50.95;98731.81;5008017;28;20044;-75
2023/07/27 06:28:11;;;;;;;4.57;4.20;;;;;;;21.41;51.82;98738.66;5007960;28;20036;-74
2023/07/27 06:30:38;;;;;;;4.93;4.25;;;;;;;21.28;51.52;98741.25;5008121;28;20029;-73
2023/07/27 06:33:05;;;;;;;5.00;4.43;;;;;;;21.32;52.06;98756.25;5006317;28;20455;-75
2023/07/27 06:35:30;;;;;;;5.00;4.22;;;;;;;21.20;51.42;98745.44;5006297;28;20115;-74
2023/07/27 06:37:56;;;;;;;4.45;4.03;;;;;;;21.10;51.43;98741.50;5007940;28;20038;-74
2023/07/27 06:40:21;;;;;;;5.53;3.55;;;;;;;21.08;51.76;98746.78;5007788;28;20030;-74
2023/07/27 06:42:47;;;;;;;8.48;4.78;;;;;;;21.28;51.74;98752.63;5006883;28;20052;-74
2023/07/27 06:45:12;;;;;;;4.30;3.90;;;;;;;21.54;49.95;98749.47;5006194;28;20454;-75
2023/07/27 06:47:38;;;;;;;4.70;3.72;;;;;;;21.63;49.72;98746.91;5009546;28;20017;-73
2023/07/27 06:50:04;;;;;;;13.07;4.47;;;;;;;21.72;49.71;98744.38;5009732;28;20026;-74
2023/07/27 06:52:29;;;;;;;8.98;4.05;;;;;;;21.76;49.57;98749.97;5009127;28;20136;-74
2023/07/27 06:54:55;;;;;;;4.03;3.45;;;;;;;21.95;49.05;98737.09;5013719;28;20493;-74
2023/07/27 06:57:21;;;;;;;10.48;3.58;;;;;;;21.86;48.97;98734.00;5005688;28;20424;-74
2023/07/27 06:59:46;;;;;;;6.28;3.92;;;;;;;22.28;48.51;98728.81;5026739;28;20025;-74
2023/07/27 07:02:12;;;;;;;5.95;2.72;;;;;;;22.23;46.91;98725.66;5013834;28;20046;-74
2023/07/27 07:04:37;;;;;;;5.18;3.60;;;;;;;22.35;47.14;98725.03;5004177;28;20457;-74
2023/07/27 07:07:03;;;;;;;8.15;3.10;;;;;;;22.63;46.00;98725.00;4994095;28;20029;-74
2023/07/27 07:09:32;;;;;;;6.38;3.25;;;;;;;22.63;46.95;98734.34;4994041;28;20168;-74
2023/07/27 07:11:58;;;;;;;6.13;3.00;;;;;;;22.75;45.79;98727.19;4994110;28;20548;-73
2023/07/27 07:14:24;;;;;;;5.03;2.95;;;;;;;23.00;44.37;98717.34;5002943;28;20022;-74
2023/07/27 07:16:50;;;;;;;9.93;2.88;;;;;;;23.17;44.16;98728.81;5011968;28;20490;-74
2023/07/27 07:19:15;;;;;;;7.55;3.80;;;;;;;23.39;43.27;98712.88;5012028;28;20034;-74
2023/07/27 07:21:41;;;;;;;4.10;2.92;;;;;;;23.34;42.50;98721.97;5012224;28;20030;-74
2023/07/27 07:24:06;;;;;;;8.27;2.60;;;;;;;23.36;42.41;98730.09;5012060;28;20026;-74
2023/07/27 07:26:32;;;;;;;8.00;2.58;;;;;;;23.70;42.90;98720.34;5013247;28;20444;-74
2023/07/27 07:28:57;;;;;;;4.70;2.65;;;;;;;22.96;42.62;98728.03;5013181;28;20030;-74
2023/07/27 07:31:23;;;;;;;12.07;2.97;;;;;;;22.49;43.62;98735.41;5013033;28;20405;-74
2023/07/27 07:33:48;;;;;;;5.75;2.55;;;;;;;22.60;44.44;98748.66;4973755;28;1144887;-74
2023/07/27 07:36:14;;;;;;;14.00;2.72;;;;;;;22.77;43.23;98743.88;5014543;28;20092;-74
2023/07/27 07:38:39;;;;;;;17.38;4.05;;;;;;;22.60;43.17;98749.47;5014547;28;20045;-74
2023/07/27 07:41:05;;;;;;;3.63;2.17;;;;;;;22.34;43.14;98753.97;5016167;28;20022;-75
2023/07/27 07:43:32;;;;;;;9.38;2.70;;;;;;;22.04;43.50;98755.69;5020916;28;20153;-75
2023/07/27 07:45:57;;;;;;;6.40;3.00;;;;;;;22.07;44.68;98767.00;5014175;28;20022;-76
2023/07/27 07:48:23;;;;;;;5.90;2.47;;;;;;;21.88;44.67;98762.84;5015836;28;20500;-75
2023/07/27 07:50:51;;;;;;;3.85;2.92;;;;;;;21.78;44.64;98760.94;5027135;28;20507;-75
2023/07/27 07:53:16;;;;;;;13.05;3.13;;;;;;;21.73;43.19;98768.75;5016200;28;20018;-77
2023/07/27 07:55:42;;;;;;;6.90;3.60;;;;;;;21.82;43.99;98768.19;5013409;28;20405;-76
2023/07/27 07:58:07;;;;;;;11.05;4.07;;;;;;;21.92;43.78;98769.28;5013448;28;20040;-76
2023/07/27 08:00:33;;;;;;;19.40;7.65;;;;;;;22.23;43.96;98760.66;5009778;28;20042;-78
2023/07/27 08:02:58;;;;;;;6.68;4.53;;;;;;;22.39;43.03;98762.00;5013607;28;20490;-76
2023/07/27 08:05:24;;;;;;;5.68;3.80;;;;;;;22.14;42.29;98766.09;5012590;28;20495;-75
2023/07/27 08:07:50;;;;;;;5.70;3.50;;;;;;;22.09;42.56;98766.59;5012140;28;20030;-74
2023/07/27 08:10:16;;;;;;;3.45;3.15;;;;;;;22.15;43.66;98776.25;5012108;28;20029;-74
2023/07/27 08:12:41;;;;;;;8.45;3.47;;;;;;;21.84;42.84;98779.13;5011859;28;20444;-73
2023/07/27 08:15:07;;;;;;;5.00;3.22;;;;;;;21.57;42.83;98777.06;5008334;28;20107;-73
2023/07/27 08:17:33;;;;;;;4.55;3.30;;;;;;;21.63;42.84;98791.59;5011254;28;20481;-73
2023/07/27 08:19:59;;;;;;;4.13;2.63;;;;;;;21.56;42.90;98795.34;5009578;28;20125;-75
2023/07/27 08:22:24;;;;;;;4.47;2.60;;;;;;;21.29;44.07;98804.63;5011105;28;20157;-74
2023/07/27 08:24:50;;;;;;;5.03;3.00;;;;;;;20.90;47.55;98807.50;5010781;28;20044;-73
2023/07/27 08:27:15;;;;;;;5.50;3.38;;;;;;;20.54;51.11;98819.19;5009747;28;20026;-74
2023/07/27 08:29:41;;;;;;;6.72;4.20;;;;;;;20.32;53.45;98815.69;5011144;28;20485;-73
2023/07/27 08:32:07;;;;;;;5.68;4.05;;;;;;;20.19;54.60;98821.09;5011236;28;20033;-76
2023/07/27 08:34:33;;;;;;;6.60;3.83;;;;;;;19.92;56.53;98807.44;5006547;28;20148;-75
2023/07/27 08:36:58;;;;;;;5.20;3.17;;;;;;;19.82;55.35;98808.31;5011137;28;20042;-76
2023/07/27 08:39:24;;;;;;;6.80;3.78;;;;;;;19.90;56.00;98805.03;5010431;28;20405;-76
2023/07/27 08:41:50;;;;;;;4.05;3.22;;;;;;;19.95;55.68;98797.31;5010526;28;20505;-80
2023/07/27 08:44:16;;;;;;;3.80;3.40;;;;;;;19.99;53.88;98806.63;5001830;28;20041;-74
2023/07/27 08:46:42;;;;;;;9.88;4.25;;;;;;;20.22;53.55;98802.41;5009452;28;20421;-75
2023/07/27 08:49:12;;;;;;;7.68;4.15;;;;;;;20.44;51.00;98801.00;5005684;28;20018;-75
2023/07/27 08:51:39;;;;;;;4.70;3.20;;;;;;;20.70;48.82;98803.63;5010023;28;20022;-75
2023/07/27 08:54:05;;;;;;;3.97;3.55;;;;;;;20.96;48.40;98799.31;5010193;28;20026;-75
2023/07/27 08:56:31;;;;;;;5.15;3.67;;;;;;;21.23;47.50;98797.78;5008507;28;20029;-75
2023/07/27 08:58:57;;;;;;;10.20;2.80;;;;;;;21.38;45.96;98801.28;5001570;28;20034;-75
2023/07/27 09:01:23;;;;;;;5.40;3.35;;;;;;;21.60;46.08;98799.78;5009398;28;20112;-75
2023/07/27 09:03:49;;;;;;;5.40;2.85;;;;;;;21.80;45.69;98792.63;5010100;28;20037;-73
2023/07/27 09:06:14;;;;;;;5.88;3.03;;;;;;;21.76;44.90;98794.72;5010870;28;20033;-73
2023/07/27 09:08:40;;;;;;;6.70;3.20;;;;;;;22.21;42.86;98787.94;5008432;28;20030;-74
2023/07/27 09:11:10;;;;;;;7.88;2.97;;;;;;;22.97;41.13;98786.66;5010252;28;20103;-74
2023/07/27 09:13:36;;;;;;;5.03;2.45;;;;;;;22.58;38.77;98774.72;5009842;28;20064;-74
2023/07/27 09:16:04;;;;;;;6.78;3.30;;;;;;;22.78;40.13;98789.03;5007940;28;20049;-74
2023/07/27 09:18:38;;;;;;;5.28;2.50;;;;;;;23.12;39.44;98778.63;5009695;28;20028;-74
2023/07/27 09:21:08;;;;;;;4.22;2.40;;;;;;;23.68;38.02;98772.19;5008815;28;20036;-74
2023/07/27 09:23:34;;;;;;;17.15;3.08;;;;;;;23.66;36.89;98776.72;4995821;28;20026;-73
2023/07/27 09:25:59;;;;;;;2.80;2.33;;;;;;;23.92;36.09;98774.91;5007675;28;20040;-73
2023/07/27 09:28:26;;;;;;;4.28;2.47;;;;;;;24.41;35.83;98776.22;5009563;28;20029;-73
2023/07/27 09:30:58;;;;;;;7.53;2.60;;;;;;;24.66;36.19;98766.97;5007428;28;20042;-74
2023/07/27 09:33:23;;;;;;;4.90;2.30;;;;;;;24.70;33.78;98764.00;4998948;28;20037;-73
2023/07/27 09:35:52;;;;;;;2.35;1.90;;;;;;;24.72;33.29;98764.38;5008432;28;20409;-74
2023/07/27 09:38:27;;;;;;;5.28;2.10;;;;;;;25.06;32.33;98770.84;5010233;28;20097;-74
2023/07/27 09:40:52;;;;;;;2.50;1.30;;;;;;;24.77;31.47;98772.44;5008633;28;20045;-74
2023/07/27 09:43:24;;;;;;;5.15;1.48;;;;;;;24.89;31.40;98772.94;5008115;28;20037;-74
2023/07/27 09:45:58;;;;;;;5.68;1.75;;;;;;;25.06;31.14;98760.19;5009262;28;20037;-74
2023/07/27 09:48:25;;;;;;;2.17;1.75;;;;;;;25.11;31.41;98775.22;5010179;28;20396;-74
2023/07/27 09:50:53;;;;;;;3.25;1.70;;;;;;;25.39;31.39;98770.69;5009417;28;20057;-74
2023/07/27 09:53:20;;;;;;;3.05;1.20;;;;;;;25.35;31.33;98764.28;5002659;28;20033;-74
2023/07/27 09:55:47;;;;;;;4.22;1.30;;;;;;;25.59;31.39;98750.53;5010013;28;20413;-74
2023/07/27 09:58:14;;;;;;;3.60;1.35;;;;;;;25.38;30.29;98774.81;5010776;28;20029;-74
2023/07/27 10:00:40;;;;;;;1.98;1.48;;;;;;;25.57;31.89;98747.28;5011290;28;20109;-74
2023/07/27 10:03:05;;;;;;;4.22;1.58;;;;;;;25.52;31.81;98762.19;5011661;28;20045;-74
2023/07/27 10:05:31;;;;;;;6.18;1.83;;;;;;;25.60;31.14;98763.59;5011013;28;20063;-74
2023/07/27 10:07:57;;;;;;;3.28;1.42;;;;;;;25.46;31.16;98743.94;5009830;28;20501;-74
2023/07/27 10:10:26;;;;;;;3.17;1.52;;;;;;;25.82;31.29;98750.66;5011132;28;20022;-74
2023/07/27 10:12:54;;;;;;;5.00;1.50;;;;;;;25.71;30.41;98756.72;5009649;28;20036;-74
2023/07/27 10:15:21;;;;;;;10.40;1.80;;;;;;;25.91;30.44;98742.19;5010962;28;20033;-74
2023/07/27 10:17:50;;;;;;;9.45;1.80;;;;;;;26.07;30.79;98747.00;5011145;28;20026;-74
2023/07/27 10:20:30;;;;;;;6.33;1.60;;;;;;;25.87;30.40;98798.75;5010916;28;20069;-74
2023/07/27 10:23:09;;;;;;;4.88;1.73;;;;;;;25.41;30.70;98738.78;5006685;28;20441;-74
2023/07/27 10:25:56;;;;;;;1.38;1.27;;;;;;;25.30;30.98;98733.38;5010394;28;20026;-74
2023/07/27 10:28:48;;;;;;;2.97;1.38;;;;;;;25.83;30.05;98741.63;5010892;28;20041;-74
2023/07/27 10:31:15;;;;;;;8.13;1.63;;;;;;;25.79;29.83;98729.44;5008819;28;20069;-74
2023/07/27 10:34:07;;;;;;;2.90;1.40;;;;;;;26.18;29.86;98726.56;5011242;28;20132;-74
2023/07/27 10:36:59;;;;;;;4.20;1.60;;;;;;;26.02;30.39;98730.38;4999850;28;20070;-74
2023/07/27 10:39:34;;;;;;;16.83;2.83;;;;;;;25.89;29.60;98738.97;5011270;28;20045;-74
2023/07/27 10:42:14;;;;;;;17.48;1.98;;;;;;;26.05;29.96;98735.16;5011185;28;20057;-74
2023/07/27 10:44:42;;;;;;;3.63;1.52;;;;;;;26.31;29.25;98726.59;5009972;28;20025;-74
2023/07/27 10:47:21;;;;;;;2.22;1.60;;;;;;;26.02;28.60;98736.91;5011147;28;20124;-74
2023/07/27 10:49:49;;;;;;;5.20;2.00;;;;;;;26.17;28.89;98720.03;5011052;28;20044;-74
2023/07/27 10:52:23;;;;;;;1.98;1.40;;;;;;;26.35;29.16;98730.13;5010545;28;20030;-74
2023/07/27 10:54:49;;;;;;;1.70;1.45;;;;;;;26.27;28.52;98720.16;5011134;28;20030;-74
2023/07/27 10:57:17;;;;;;;8.73;2.22;;;;;;;26.61;28.01;98727.19;5010616;28;20068;-74
2023/07/27 10:59:44;;;;;;;13.05;1.88;;;;;;;26.45;28.58;98723.22;4996448;28;20030;-74
2023/07/27 11:02:22;;;;;;;4.68;1.77;;;;;;;26.09;28.25;98738.72;5011080;28;20026;-74
2023/07/27 11:04:52;;;;;;;8.00;1.67;;;;;;;26.36;28.76;98728.84;5010811;28;20048;-74
2023/07/27 11:07:24;;;;;;;9.95;2.55;;;;;;;26.40;28.37;98726.66;5010567;28;20018;-74
2023/07/27 11:09:50;;;;;;;1.63;1.52;;;;;;;26.43;27.92;98719.22;5010211;28;20056;-74
2023/07/27 11:12:15;;;;;;;3.63;1.50;;;;;;;26.66;28.46;98720.06;5010480;28;20030;-74
2023/07/27 11:14:41;;;;;;;5.28;1.73;;;;;;;26.58;27.88;98722.38;5010366;28;20037;-74
2023/07/27 11:17:07;;;;;;;2.63;1.50;;;;;;;26.65;28.45;98712.72;5010349;28;20026;-74
2023/07/27 11:19:33;;;;;;;3.08;1.40;;;;;;;26.37;27.37;98743.97;5010132;28;20030;-74
2023/07/27 11:21:59;;;;;;;2.60;1.55;;;;;;;26.33;28.22;98718.31;5010081;28;20026;-74
2023/07/27 11:24:24;;;;;;;4.43;1.40;;;;;;;26.43;28.32;98711.44;5010090;28;20405;-75
2023/07/27 11:26:51;;;;;;;3.53;1.23;;;;;;;26.55;28.26;98706.91;5009774;28;20026;-74
2023/07/27 11:29:17;;;;;;;4.07;1.58;;;;;;;26.43;28.22;98722.88;5010279;28;20022;-74